Time;durP1;ratioP1;P1;durP2;ratioP2;P2;SDS_P1;SDS_P2;PMS_P1;PMS_P2;Temp;Humidity;BMP_temperature;BMP_pressure;BME280_temperature;BME280_humidity;BME280_pressure;Samples;Min_cycle;Max_cycle;Signal;HPM_P1;HPM_P2
2021/12/06 00:02:22;;;;;;;6.40;2.10;;;11.10;99.90;;;;;;5001551;28;20700;-65
2021/12/06 00:04:49;;;;;;;3.00;1.33;;;11.00;99.90;;;;;;5002001;28;20196;-66
2021/12/06 00:07:24;;;;;;;5.23;1.80;;;11.00;99.90;;;;;;5001996;28;20598;-65
2021/12/06 00:09:50;;;;;;;7.00;1.70;;;11.00;99.90;;;;;;5002112;28;20219;-65
2021/12/06 00:12:17;;;;;;;6.10;1.70;;;11.10;99.90;;;;;;5000051;28;20384;-65
2021/12/06 00:14:44;;;;;;;5.17;1.70;;;11.10;99.90;;;;;;5034316;28;20193;-66
2021/12/06 00:17:14;;;;;;;9.37;2.00;;;11.00;99.90;;;;;;5001724;28;20201;-66
2021/12/06 00:19:43;;;;;;;5.33;1.57;;;11.00;99.90;;;;;;5003866;28;20335;-65
2021/12/06 00:22:16;;;;;;;5.27;1.67;;;11.00;99.90;;;;;;5002900;28;20215;-65
2021/12/06 00:24:42;;;;;;;9.20;1.77;;;11.00;99.90;;;;;;5007827;28;20192;-65
2021/12/06 00:27:09;;;;;;;8.67;2.10;;;10.90;99.90;;;;;;5004874;28;21016;-66
2021/12/06 00:29:37;;;;;;;11.47;2.20;;;10.90;99.90;;;;;;5004772;28;20189;-66
2021/12/06 00:32:03;;;;;;;6.90;1.73;;;10.90;99.90;;;;;;5007196;28;20249;-66
2021/12/06 00:34:34;;;;;;;16.10;2.30;;;10.90;99.90;;;;;;5004449;28;20197;-65
2021/12/06 00:37:16;;;;;;;3.50;1.93;;;10.90;99.90;;;;;;5007216;28;20298;-66
2021/12/06 00:39:53;;;;;;;7.77;1.80;;;10.90;99.90;;;;;;5004749;28;20193;-65
2021/12/06 00:42:22;;;;;;;3.57;1.60;;;10.90;99.90;;;;;;5007574;28;20190;-66
2021/12/06 00:44:49;;;;;;;10.47;2.03;;;10.90;99.90;;;;;;5000366;28;20220;-65
2021/12/06 00:47:16;;;;;;;3.30;1.70;;;10.90;99.90;;;;;;5006917;28;20683;-65
2021/12/06 00:49:45;;;;;;;8.77;1.80;;;10.90;99.90;;;;;;4990307;28;20196;-65
2021/12/06 00:52:13;;;;;;;6.37;1.80;;;10.80;99.90;;;;;;5004953;28;20193;-65
2021/12/06 00:54:40;;;;;;;4.83;1.83;;;10.80;99.90;;;;;;5001701;28;20189;-65
2021/12/06 00:57:11;;;;;;;4.80;1.90;;;10.80;99.90;;;;;;5007301;28;20230;-66
2021/12/06 00:59:38;;;;;;;4.90;1.90;;;10.80;99.90;;;;;;5003658;28;20220;-66
2021/12/06 01:02:07;;;;;;;3.83;2.00;;;10.80;99.90;;;;;;5003060;28;20209;-65
2021/12/06 01:04:37;;;;;;;6.53;2.47;;;10.70;99.90;;;;;;5007672;28;20189;-66
2021/12/06 01:07:06;;;;;;;4.10;2.00;;;10.70;99.90;;;;;;5007498;28;20219;-66
2021/12/06 01:09:32;;;;;;;8.30;1.97;;;10.70;99.90;;;;;;5005588;28;20195;-65
2021/12/06 01:12:00;;;;;;;7.50;2.20;;;10.70;99.90;;;;;;5004648;28;20308;-65
2021/12/06 01:14:26;;;;;;;5.13;1.93;;;10.80;99.90;;;;;;5037682;28;20662;-66
2021/12/06 01:16:52;;;;;;;5.37;1.90;;;10.70;99.90;;;;;;5007264;28;20217;-66
2021/12/06 01:19:19;;;;;;;4.70;1.87;;;10.70;99.90;;;;;;5004692;28;21184;-66
2021/12/06 01:21:53;;;;;;;6.27;1.80;;;10.60;99.90;;;;;;5004810;28;20189;-65
2021/12/06 01:24:27;;;;;;;3.80;1.70;;;10.60;99.90;;;;;;5006319;28;20192;-67
2021/12/06 01:30:20;;;;;;;5.30;1.70;;;10.70;99.90;;;;;;4993941;28;20443;-63
2021/12/06 01:40:33;;;;;;;4.90;1.60;;;10.80;99.90;;;;;;4986772;28;20196;-66
2021/12/06 01:43:05;;;;;;;7.60;1.50;;;10.70;99.90;;;;;;5007025;28;20193;-66
2021/12/06 01:45:32;;;;;;;7.33;1.90;;;10.60;99.90;;;;;;5003142;28;20534;-66
2021/12/06 01:47:58;;;;;;;9.30;1.83;;;10.50;99.90;;;;;;5021499;28;20189;-66
2021/12/06 01:50:28;;;;;;;3.40;1.67;;;10.50;99.90;;;;;;5020412;28;20677;-67
2021/12/06 01:53:02;;;;;;;6.47;2.13;;;10.50;99.90;;;;;;5003538;28;20904;-66
2021/12/06 01:55:34;;;;;;;4.13;1.80;;;10.50;99.90;;;;;;5012014;28;20203;-66
2021/12/06 01:58:03;;;;;;;5.07;2.00;;;10.60;99.90;;;;;;5004130;28;20209;-66
2021/12/06 02:00:43;;;;;;;7.03;2.13;;;10.60;99.90;;;;;;4987899;28;20193;-66
2021/12/06 02:03:10;;;;;;;7.17;1.80;;;10.60;99.90;;;;;;5006370;28;20235;-66
2021/12/06 02:05:39;;;;;;;8.37;2.07;;;10.70;99.90;;;;;;4987385;28;20185;-66
2021/12/06 02:08:07;;;;;;;9.23;2.00;;;10.70;99.90;;;;;;5038330;28;20250;-65
2021/12/06 02:10:34;;;;;;;7.23;2.00;;;10.70;99.90;;;;;;5005008;28;20216;-66
2021/12/06 02:13:01;;;;;;;11.37;2.30;;;10.70;99.90;;;;;;5021429;28;20321;-66
2021/12/06 02:15:43;;;;;;;4.47;2.00;;;10.70;99.90;;;;;;5003981;28;20708;-66
2021/12/06 02:21:19;;;;;;;4.97;1.70;;;10.70;99.90;;;;;;5005146;28;20184;-66
2021/12/06 02:23:48;;;;;;;6.03;1.60;;;10.50;99.90;;;;;;5003362;28;20192;-66
2021/12/06 02:26:16;;;;;;;6.97;1.60;;;10.50;99.90;;;;;;5006657;28;20184;-66
2021/12/06 02:28:43;;;;;;;5.63;2.00;;;10.50;99.90;;;;;;5020293;28;20208;-66
2021/12/06 02:31:11;;;;;;;7.77;1.70;;;10.50;99.90;;;;;;5005658;28;20278;-67
2021/12/06 02:33:39;;;;;;;14.53;2.03;;;10.50;99.90;;;;;;5020840;28;20259;-66
2021/12/06 02:36:06;;;;;;;5.17;1.60;;;10.50;99.90;;;;;;5005316;28;20836;-66
2021/12/06 02:38:33;;;;;;;7.47;2.03;;;10.50;99.90;;;;;;5037196;28;20298;-66
2021/12/06 02:40:59;;;;;;;5.63;2.03;;;10.50;99.90;;;;;;5020598;28;20189;-67
2021/12/06 02:43:26;;;;;;;13.03;2.13;;;10.60;99.90;;;;;;4987489;28;20701;-66
2021/12/06 02:45:52;;;;;;;6.27;1.63;;;10.60;99.90;;;;;;5006352;28;20188;-66
2021/12/06 02:48:18;;;;;;;7.23;1.80;;;10.60;99.90;;;;;;5005129;28;20189;-66
2021/12/06 02:50:59;;;;;;;3.87;1.80;;;10.60;99.90;;;;;;5020520;28;20201;-66
2021/12/06 02:53:29;;;;;;;7.63;2.00;;;10.60;99.90;;;;;;5001529;28;20189;-66
2021/12/06 02:55:59;;;;;;;4.73;1.90;;;10.60;99.90;;;;;;4991576;28;20924;-66
2021/12/06 03:01:08;;;;;;;8.57;2.20;;;10.70;99.90;;;;;;4998987;28;20534;-66
2021/12/06 03:03:36;;;;;;;7.30;2.00;;;10.80;99.90;;;;;;5001306;28;20195;-66
2021/12/06 03:06:03;;;;;;;5.70;1.90;;;10.80;99.90;;;;;;5003934;28;20193;-66
2021/12/06 03:08:49;;;;;;;4.00;1.70;;;10.80;99.90;;;;;;5004570;28;20232;-66
2021/12/06 03:11:28;;;;;;;6.77;1.90;;;10.90;99.90;;;;;;4992081;28;20192;-65
2021/12/06 03:13:55;;;;;;;5.33;1.70;;;10.90;99.90;;;;;;5002919;28;20200;-65
2021/12/06 03:16:22;;;;;;;7.43;2.10;;;11.00;99.90;;;;;;5005406;28;20593;-64
2021/12/06 03:18:51;;;;;;;7.70;1.93;;;11.00;99.90;;;;;;5003989;28;20582;-65
2021/12/06 03:21:19;;;;;;;3.50;2.00;;;11.10;99.90;;;;;;5004707;28;20189;-64
2021/12/06 03:23:50;;;;;;;5.97;2.10;;;11.10;99.90;;;;;;5003602;28;20587;-65
2021/12/06 03:26:17;;;;;;;4.70;1.87;;;11.10;99.90;;;;;;5005052;28;20672;-66
2021/12/06 03:28:45;;;;;;;5.43;1.80;;;11.10;99.90;;;;;;5003161;28;20254;-65
2021/12/06 03:31:13;;;;;;;7.23;1.93;;;11.20;99.90;;;;;;5019805;28;20291;-63
2021/12/06 03:33:45;;;;;;;9.80;1.90;;;11.20;99.90;;;;;;5005061;28;20899;-65
2021/12/06 03:36:13;;;;;;;8.03;2.00;;;11.20;99.90;;;;;;5005422;28;20714;-64
2021/12/06 03:38:41;;;;;;;7.30;2.00;;;11.30;99.90;;;;;;5003140;28;20217;-64
2021/12/06 03:41:10;;;;;;;4.27;1.97;;;11.30;99.90;;;;;;5003295;28;20280;-65
2021/12/06 03:43:39;;;;;;;6.70;2.03;;;11.40;99.90;;;;;;5004769;28;20192;-65
2021/12/06 03:46:06;;;;;;;7.03;2.07;;;11.40;99.90;;;;;;5005063;28;20205;-66
2021/12/06 03:48:32;;;;;;;6.83;1.93;;;11.40;99.90;;;;;;5000390;28;20276;-64
2021/12/06 03:51:00;;;;;;;3.67;1.60;;;11.40;99.90;;;;;;4998366;28;20201;-66
2021/12/06 03:53:28;;;;;;;4.67;1.97;;;11.40;99.90;;;;;;5004400;28;20197;-64
2021/12/06 03:55:55;;;;;;;8.00;1.97;;;11.50;99.90;;;;;;5040860;28;20704;-64
2021/12/06 03:58:21;;;;;;;8.77;1.93;;;11.60;99.90;;;;;;5007867;28;20240;-64
2021/12/06 04:00:48;;;;;;;6.17;1.70;;;11.80;99.90;;;;;;5007718;28;20196;-65
2021/12/06 04:03:17;;;;;;;8.53;1.83;;;11.90;99.90;;;;;;5008453;28;20212;-64
2021/12/06 04:05:44;;;;;;;4.33;1.67;;;11.90;99.90;;;;;;5007522;28;20251;-64
2021/12/06 04:08:10;;;;;;;8.80;2.27;;;11.90;99.90;;;;;;5008943;28;20196;-65
2021/12/06 04:10:37;;;;;;;8.60;1.93;;;12.00;99.90;;;;;;5008069;28;20200;-65
2021/12/06 04:13:03;;;;;;;5.77;1.70;;;12.00;99.90;;;;;;5009189;28;20239;-64
2021/12/06 04:15:30;;;;;;;5.73;1.90;;;12.00;99.90;;;;;;5005896;28;20209;-64
2021/12/06 04:17:59;;;;;;;4.77;1.67;;;12.00;99.90;;;;;;5007676;28;20303;-65
2021/12/06 04:20:26;;;;;;;5.03;1.97;;;12.00;99.90;;;;;;5020188;28;20581;-65
2021/12/06 04:22:54;;;;;;;3.53;2.00;;;12.00;99.90;;;;;;5007445;28;20646;-65
2021/12/06 04:25:21;;;;;;;3.63;1.70;;;12.00;99.90;;;;;;5007636;28;20228;-63
2021/12/06 04:27:55;;;;;;;4.70;1.60;;;12.00;99.90;;;;;;5023182;28;20200;-65
2021/12/06 04:30:24;;;;;;;4.03;1.60;;;12.00;99.90;;;;;;5006425;28;20180;-64
2021/12/06 04:32:54;;;;;;;6.77;1.90;;;12.10;99.90;;;;;;5008332;28;20272;-65
2021/12/06 04:35:21;;;;;;;5.83;1.80;;;12.10;99.90;;;;;;5007479;28;20229;-64
2021/12/06 04:37:47;;;;;;;6.67;2.00;;;12.10;99.90;;;;;;5008953;28;20318;-65
2021/12/06 04:40:14;;;;;;;4.97;1.83;;;12.10;99.90;;;;;;5007849;28;20194;-64
2021/12/06 04:42:42;;;;;;;4.30;1.70;;;12.10;99.90;;;;;;5008003;28;20197;-64
2021/12/06 04:45:12;;;;;;;7.33;1.87;;;12.10;99.90;;;;;;5004109;28;20837;-64
2021/12/06 04:47:40;;;;;;;9.03;2.77;;;12.10;99.90;;;;;;5008435;28;20578;-64
2021/12/06 04:50:10;;;;;;;5.87;1.60;;;12.20;99.90;;;;;;5008553;28;20534;-64
2021/12/06 04:52:38;;;;;;;6.10;1.90;;;12.20;99.90;;;;;;5007769;28;20204;-63
2021/12/06 04:55:23;;;;;;;5.60;1.97;;;12.30;99.90;;;;;;4993912;28;20195;-64
2021/12/06 04:57:50;;;;;;;11.27;2.90;;;12.30;99.90;;;;;;4990228;28;20573;-64
2021/12/06 05:00:57;;;;;;;7.93;2.33;;;12.40;99.90;;;;;;4998849;28;20185;-64
2021/12/06 05:03:24;;;;;;;7.17;2.17;;;12.40;99.90;;;;;;5002462;28;20230;-65
2021/12/06 05:05:57;;;;;;;5.77;2.07;;;12.50;99.90;;;;;;4988967;28;20224;-64
2021/12/06 05:08:30;;;;;;;7.43;2.17;;;12.50;99.90;;;;;;4997278;28;20307;-64
2021/12/06 05:11:00;;;;;;;8.63;2.43;;;12.50;99.90;;;;;;5007049;28;20692;-65
2021/12/06 05:13:28;;;;;;;7.47;1.97;;;12.60;99.90;;;;;;4989365;28;20212;-64
2021/12/06 05:15:57;;;;;;;11.67;2.77;;;12.60;99.90;;;;;;5023119;28;20216;-64
2021/12/06 05:18:24;;;;;;;13.80;2.30;;;12.70;99.90;;;;;;5006653;28;20209;-63
2021/12/06 05:20:51;;;;;;;6.43;2.20;;;12.70;99.90;;;;;;4999073;28;20283;-64
2021/12/06 05:23:20;;;;;;;6.93;2.20;;;12.70;99.90;;;;;;5007320;28;20236;-64
2021/12/06 05:25:47;;;;;;;14.57;2.20;;;12.70;99.90;;;;;;5038946;28;20181;-64
2021/12/06 05:28:13;;;;;;;7.43;2.13;;;12.70;99.90;;;;;;5005455;28;20208;-65
2021/12/06 05:30:42;;;;;;;7.33;1.93;;;12.70;99.90;;;;;;5004815;28;20203;-64
2021/12/06 05:33:17;;;;;;;14.33;2.70;;;12.70;99.90;;;;;;5007641;28;20188;-63
2021/12/06 05:35:45;;;;;;;12.57;2.57;;;12.80;99.90;;;;;;5005708;28;20696;-65
2021/12/06 05:38:12;;;;;;;9.53;2.40;;;12.90;99.90;;;;;;5038464;28;20209;-64
2021/12/06 05:40:39;;;;;;;8.50;2.40;;;12.90;99.90;;;;;;5006515;28;20511;-65
2021/12/06 05:43:06;;;;;;;9.97;2.50;;;13.00;99.90;;;;;;4989215;28;20200;-64
2021/12/06 05:45:36;;;;;;;12.67;3.27;;;13.10;99.90;;;;;;5007283;28;20200;-64
2021/12/06 05:48:03;;;;;;;9.60;2.33;;;13.10;99.90;;;;;;5006136;28;20247;-63
2021/12/06 05:50:30;;;;;;;9.20;2.23;;;13.10;99.90;;;;;;5006859;28;20255;-65
2021/12/06 05:52:57;;;;;;;4.60;2.10;;;13.20;99.90;;;;;;5006793;28;20192;-64
2021/12/06 05:55:29;;;;;;;8.23;1.90;;;13.20;99.90;;;;;;5004946;28;20208;-64
2021/12/06 05:58:06;;;;;;;4.50;1.80;;;13.20;99.90;;;;;;5007398;28;20215;-65
2021/12/06 06:00:33;;;;;;;6.87;2.30;;;13.30;99.90;;;;;;5017944;28;20220;-65
2021/12/06 06:03:03;;;;;;;5.53;1.93;;;13.30;99.90;;;;;;5037643;28;20185;-63
2021/12/06 06:05:30;;;;;;;9.63;2.30;;;13.40;99.90;;;;;;5005715;28;20721;-65
2021/12/06 06:07:57;;;;;;;10.70;1.97;;;13.50;99.90;;;;;;5005507;28;20231;-65
2021/12/06 06:10:23;;;;;;;8.10;2.03;;;13.60;99.90;;;;;;5038473;28;20189;-65
2021/12/06 06:12:49;;;;;;;12.47;1.87;;;13.70;99.90;;;;;;5021539;28;20739;-63
2021/12/06 06:15:16;;;;;;;11.90;2.30;;;13.80;99.90;;;;;;5006131;28;22177;-63
2021/12/06 06:17:44;;;;;;;6.90;2.33;;;13.90;99.90;;;;;;5020379;28;20204;-64
2021/12/06 06:20:27;;;;;;;8.57;1.83;;;14.00;99.90;;;;;;5003583;28;20205;-64
2021/12/06 06:22:54;;;;;;;9.23;1.97;;;14.00;99.90;;;;;;5004811;28;20498;-64
2021/12/06 06:25:21;;;;;;;5.10;1.60;;;14.10;99.90;;;;;;5004281;28;20180;-66
2021/12/06 06:27:48;;;;;;;7.30;1.70;;;14.20;99.90;;;;;;5005617;28;20275;-66
2021/12/06 06:30:16;;;;;;;6.00;1.50;;;14.20;99.90;;;;;;5003620;28;20240;-64
2021/12/06 06:32:44;;;;;;;4.13;1.87;;;14.20;99.90;;;;;;5004358;28;20188;-64
2021/12/06 06:35:11;;;;;;;11.90;1.80;;;14.20;99.90;;;;;;5021413;28;20219;-64
2021/12/06 06:37:38;;;;;;;5.63;1.80;;;14.30;99.90;;;;;;5006120;28;20243;-65
2021/12/06 06:40:05;;;;;;;8.37;1.97;;;14.30;99.90;;;;;;5006099;28;20200;-64
2021/12/06 06:42:32;;;;;;;6.03;1.87;;;14.40;99.90;;;;;;5003032;28;20287;-65
2021/12/06 06:44:58;;;;;;;10.70;1.90;;;14.40;99.90;;;;;;5020755;28;20793;-65
2021/12/06 06:47:25;;;;;;;3.70;1.80;;;14.40;99.90;;;;;;5006235;28;20262;-65
2021/12/06 06:49:52;;;;;;;6.87;1.90;;;14.60;99.90;;;;;;5006281;28;20276;-65
2021/12/06 06:52:18;;;;;;;5.30;1.60;;;14.70;99.90;;;;;;5002629;28;20284;-66
2021/12/06 06:54:45;;;;;;;6.87;1.93;;;14.60;99.90;;;;;;5007249;28;20195;-65
2021/12/06 06:57:11;;;;;;;5.57;1.80;;;14.70;99.90;;;;;;5005816;28;20251;-64
2021/12/06 06:59:40;;;;;;;7.83;1.80;;;14.70;99.90;;;;;;5006225;28;20191;-64
2021/12/06 07:02:08;;;;;;;8.13;1.50;;;14.80;99.90;;;;;;5002403;28;20197;-64
2021/12/06 07:04:35;;;;;;;4.17;1.50;;;15.10;99.90;;;;;;5004348;28;20288;-66
2021/12/06 07:07:01;;;;;;;5.00;1.40;;;15.10;99.90;;;;;;5005309;28;20201;-64
2021/12/06 07:09:28;;;;;;;6.13;1.57;;;15.00;99.90;;;;;;5005322;28;20323;-65
2021/12/06 07:11:54;;;;;;;10.03;1.73;;;15.00;99.90;;;;;;5004168;28;20239;-65
2021/12/06 07:14:20;;;;;;;9.67;1.97;;;15.00;99.90;;;;;;5018975;28;20198;-64
2021/12/06 07:16:48;;;;;;;6.33;1.97;;;14.90;99.90;;;;;;5004798;28;20228;-65
2021/12/06 07:19:16;;;;;;;8.17;2.10;;;15.00;99.90;;;;;;5019820;28;20680;-65
2021/12/06 07:21:43;;;;;;;9.23;1.87;;;15.10;99.90;;;;;;4999249;28;20243;-65
2021/12/06 07:24:10;;;;;;;7.90;1.80;;;15.40;99.90;;;;;;5003532;28;20196;-65
2021/12/06 07:26:36;;;;;;;7.70;1.63;;;15.80;99.90;;;;;;5004315;28;20212;-65
2021/12/06 07:29:03;;;;;;;10.50;1.90;;;15.80;99.90;;;;;;5006850;28;20196;-65
2021/12/06 07:31:30;;;;;;;9.50;2.10;;;15.60;99.90;;;;;;5007350;28;20199;-65
2021/12/06 07:33:57;;;;;;;8.00;1.93;;;15.50;99.90;;;;;;5007638;28;20188;-64
2021/12/06 07:36:26;;;;;;;7.87;1.87;;;15.50;99.90;;;;;;5008709;28;20247;-66
2021/12/06 07:38:53;;;;;;;6.97;1.77;;;15.40;99.90;;;;;;5024597;28;20224;-66
2021/12/06 07:41:28;;;;;;;4.90;1.53;;;15.40;99.90;;;;;;5007387;28;20184;-66
2021/12/06 07:43:56;;;;;;;3.07;1.50;;;15.40;99.90;;;;;;5008535;28;20204;-66
2021/12/06 07:46:24;;;;;;;4.80;1.40;;;15.30;99.90;;;;;;5008657;28;20184;-67
2021/12/06 07:48:52;;;;;;;4.97;1.70;;;15.30;99.90;;;;;;5009389;28;20891;-66
2021/12/06 07:51:28;;;;;;;9.77;1.80;;;15.30;99.90;;;;;;4982789;28;20193;-67
2021/12/06 07:53:57;;;;;;;8.93;1.50;;;15.20;99.90;;;;;;5009304;28;21047;-67
2021/12/06 07:56:24;;;;;;;8.27;1.83;;;15.30;99.90;;;;;;5007138;28;20239;-66
2021/12/06 07:58:52;;;;;;;2.27;1.23;;;15.30;99.90;;;;;;5008698;28;20255;-67
2021/12/06 08:01:19;;;;;;;7.17;1.53;;;15.40;99.90;;;;;;5022778;28;20295;-66
2021/12/06 08:03:45;;;;;;;6.40;1.20;;;15.40;99.90;;;;;;5008752;28;20195;-66
2021/12/06 08:06:12;;;;;;;7.67;1.27;;;15.50;99.90;;;;;;5008819;28;20562;-66
2021/12/06 08:08:40;;;;;;;5.90;1.60;;;15.50;99.90;;;;;;5007270;28;20239;-65
2021/12/06 08:11:12;;;;;;;5.37;1.63;;;15.50;99.90;;;;;;5008296;28;20242;-65
2021/12/06 08:13:44;;;;;;;6.17;1.40;;;15.50;99.90;;;;;;5008930;28;20572;-65
2021/12/06 08:16:19;;;;;;;5.60;1.47;;;15.70;99.90;;;;;;5007089;28;20549;-66
2021/12/06 08:18:46;;;;;;;6.43;1.40;;;15.80;99.90;;;;;;5006977;28;20232;-65
2021/12/06 08:21:18;;;;;;;3.30;0.90;;;15.80;99.90;;;;;;5006990;28;20185;-65
2021/12/06 08:23:48;;;;;;;6.70;1.73;;;15.80;99.90;;;;;;5023356;28;20830;-65
2021/12/06 08:26:16;;;;;;;8.83;1.30;;;16.00;99.90;;;;;;5008855;28;20711;-65
2021/12/06 08:28:45;;;;;;;4.70;1.30;;;16.10;99.90;;;;;;5007988;28;20203;-65
2021/12/06 08:31:13;;;;;;;7.20;1.60;;;16.10;99.90;;;;;;5007443;28;20224;-66
2021/12/06 08:33:40;;;;;;;3.97;1.10;;;16.20;99.90;;;;;;5008115;28;20739;-66
2021/12/06 08:36:09;;;;;;;5.47;1.20;;;16.20;99.90;;;;;;5037331;28;20266;-67
2021/12/06 08:38:37;;;;;;;7.23;1.50;;;16.20;99.90;;;;;;5007716;28;20815;-66
2021/12/06 08:41:10;;;;;;;4.83;1.37;;;16.10;99.90;;;;;;5021801;28;20189;-66
2021/12/06 08:43:39;;;;;;;7.70;1.10;;;16.10;99.90;;;;;;5008537;28;20191;-66
2021/12/06 08:46:11;;;;;;;4.50;1.23;;;16.10;99.90;;;;;;5008913;28;20201;-67
2021/12/06 08:48:41;;;;;;;2.77;1.00;;;16.10;99.90;;;;;;5022623;28;20189;-66
2021/12/06 08:51:46;;;;;;;6.90;1.57;;;16.20;99.90;;;;;;4990472;28;20201;-67
2021/12/06 08:54:26;;;;;;;7.47;1.30;;;16.20;99.90;;;;;;5005060;28;20644;-66
2021/12/06 08:56:56;;;;;;;4.90;1.43;;;16.30;99.90;;;;;;5004311;28;20294;-65
2021/12/06 08:59:23;;;;;;;12.30;1.80;;;16.30;99.90;;;;;;4987726;28;20612;-65
2021/12/06 09:01:54;;;;;;;5.87;1.43;;;16.30;99.90;;;;;;5001779;28;20251;-66
2021/12/06 09:04:22;;;;;;;8.40;2.13;;;16.40;99.90;;;;;;5006639;28;20195;-66
2021/12/06 09:06:53;;;;;;;3.13;1.10;;;16.50;99.90;;;;;;5001207;28;20189;-66
2021/12/06 09:09:21;;;;;;;6.83;1.10;;;16.50;99.90;;;;;;5007150;28;20840;-65
2021/12/06 09:11:49;;;;;;;5.50;1.43;;;16.60;99.90;;;;;;5005705;28;20192;-65
2021/12/06 09:14:17;;;;;;;4.83;1.20;;;16.50;99.90;;;;;;5006717;28;20232;-65
2021/12/06 09:16:46;;;;;;;5.33;1.40;;;16.50;99.90;;;;;;5020866;28;20718;-65
2021/12/06 09:19:15;;;;;;;5.43;1.33;;;16.60;99.90;;;;;;5005799;28;20188;-65
2021/12/06 09:21:43;;;;;;;8.27;1.10;;;16.70;99.90;;;;;;5018466;28;20189;-65
2021/12/06 09:24:20;;;;;;;4.23;1.20;;;16.70;99.90;;;;;;5011502;28;20609;-65
2021/12/06 09:26:48;;;;;;;4.30;1.13;;;16.80;99.90;;;;;;5006019;28;20209;-65
2021/12/06 09:29:18;;;;;;;6.67;1.33;;;17.00;99.90;;;;;;5005875;28;20642;-66
2021/12/06 09:31:46;;;;;;;6.33;1.23;;;17.00;99.90;;;;;;5006277;28;20203;-65
2021/12/06 09:34:12;;;;;;;5.50;1.47;;;17.00;99.90;;;;;;5007219;28;20223;-66
2021/12/06 09:36:39;;;;;;;5.87;1.30;;;17.00;99.90;;;;;;5005704;28;20201;-65
2021/12/06 09:39:07;;;;;;;8.17;1.30;;;16.90;99.90;;;;;;5021140;28;20247;-66
2021/12/06 09:41:34;;;;;;;4.20;1.40;;;16.90;99.90;;;;;;5005417;28;20527;-65
2021/12/06 09:44:05;;;;;;;4.90;1.53;;;16.80;99.90;;;;;;5022272;28;20227;-65
2021/12/06 09:46:36;;;;;;;6.53;1.37;;;16.80;99.90;;;;;;5005222;28;20197;-65
2021/12/06 09:49:16;;;;;;;4.80;1.30;;;16.90;99.90;;;;;;5034386;28;20691;-65
2021/12/06 09:51:52;;;;;;;5.33;1.20;;;17.10;99.90;;;;;;5006117;28;20272;-66
2021/12/06 09:54:22;;;;;;;8.23;1.63;;;17.20;99.90;;;;;;5038487;28;20199;-65
2021/12/06 09:56:52;;;;;;;3.90;1.60;;;17.30;99.90;;;;;;5003500;28;20247;-66
2021/12/06 09:59:24;;;;;;;5.03;1.50;;;17.30;99.90;;;;;;5006190;28;20193;-65
2021/12/06 10:02:17;;;;;;;9.00;1.40;;;17.40;99.90;;;;;;5004388;28;20203;-65
2021/12/06 10:04:51;;;;;;;7.37;1.70;;;17.40;99.90;;;;;;5005678;28;20208;-65
2021/12/06 10:07:20;;;;;;;8.27;1.80;;;17.60;99.90;;;;;;5007041;28;20883;-65
2021/12/06 10:09:47;;;;;;;3.73;1.17;;;17.60;99.90;;;;;;5005427;28;20239;-64
2021/12/06 10:12:16;;;;;;;5.93;1.30;;;17.70;99.90;;;;;;5004962;28;20942;-65
2021/12/06 10:14:47;;;;;;;6.77;1.57;;;17.70;99.90;;;;;;5005983;28;20221;-65
2021/12/06 10:17:16;;;;;;;6.17;1.70;;;17.70;99.90;;;;;;5006361;28;20331;-65
2021/12/06 10:19:44;;;;;;;6.37;1.10;;;17.80;99.90;;;;;;5004134;28;20185;-65
2021/12/06 10:22:12;;;;;;;5.57;1.40;;;17.80;99.90;;;;;;5035339;28;20212;-65
2021/12/06 10:24:39;;;;;;;2.30;1.27;;;17.80;99.90;;;;;;5020590;28;20193;-65
2021/12/06 10:27:15;;;;;;;5.33;1.47;;;17.90;99.90;;;;;;5003521;28;20925;-66
2021/12/06 10:29:52;;;;;;;4.37;1.40;;;18.50;99.90;;;;;;5005786;28;20207;-65
2021/12/06 10:32:26;;;;;;;3.67;1.10;;;18.40;99.90;;;;;;5005716;28;20219;-65
2021/12/06 10:35:09;;;;;;;7.00;1.33;;;18.30;99.90;;;;;;4986517;28;20223;-64
2021/12/06 10:37:57;;;;;;;5.27;1.47;;;18.10;99.90;;;;;;5004463;28;20229;-65
2021/12/06 10:40:35;;;;;;;2.43;0.80;;;18.20;99.90;;;;;;5003240;28;20276;-65
2021/12/06 10:43:06;;;;;;;4.17;1.30;;;18.00;99.90;;;;;;5004164;28;20242;-64
2021/12/06 10:45:47;;;;;;;4.90;1.20;;;18.20;99.90;;;;;;5018490;28;20243;-64
2021/12/06 10:48:31;;;;;;;6.70;1.50;;;18.60;99.90;;;;;;5001329;28;20197;-65
2021/12/06 10:51:10;;;;;;;4.73;1.23;;;18.50;99.90;;;;;;5031452;28;20243;-66
2021/12/06 10:53:49;;;;;;;3.17;1.10;;;18.40;99.90;;;;;;4993426;28;20732;-67
2021/12/06 10:56:25;;;;;;;4.87;1.13;;;18.20;99.90;;;;;;5020980;28;20192;-67
2021/12/06 10:58:55;;;;;;;5.63;1.23;;;18.20;99.90;;;;;;4999414;28;20221;-67
2021/12/06 11:01:31;;;;;;;6.30;1.60;;;18.10;99.90;;;;;;5003167;28;20215;-67
2021/12/06 11:04:00;;;;;;;3.30;1.23;;;18.10;99.90;;;;;;5016485;28;20220;-66
2021/12/06 11:06:33;;;;;;;6.80;1.60;;;18.00;99.90;;;;;;4998096;28;20591;-67
2021/12/06 11:09:04;;;;;;;4.50;1.10;;;18.00;99.90;;;;;;5003745;28;20899;-67
2021/12/06 11:11:50;;;;;;;3.40;1.50;;;18.00;99.90;;;;;;4999362;28;20193;-66
2021/12/06 11:14:25;;;;;;;9.97;1.73;;;18.10;99.90;;;;;;4997277;28;20245;-67
2021/12/06 11:17:01;;;;;;;5.07;1.50;;;18.10;99.90;;;;;;5003237;28;20212;-67
2021/12/06 11:19:31;;;;;;;6.83;1.37;;;18.10;99.90;;;;;;5001970;28;20605;-66
2021/12/06 11:22:12;;;;;;;5.10;1.50;;;18.10;99.90;;;;;;5019745;28;20203;-66
2021/12/06 11:24:46;;;;;;;6.53;1.20;;;18.10;99.90;;;;;;5003224;28;20521;-67
2021/12/06 11:27:17;;;;;;;7.77;1.50;;;18.10;99.90;;;;;;5000217;28;20286;-66
2021/12/06 11:30:02;;;;;;;6.90;1.50;;;18.10;99.90;;;;;;5035021;28;20275;-66
2021/12/06 11:32:34;;;;;;;5.70;1.37;;;18.10;99.90;;;;;;5008680;28;20440;-66
2021/12/06 11:35:09;;;;;;;6.43;1.80;;;18.10;99.90;;;;;;5035540;28;20347;-66
2021/12/06 11:37:46;;;;;;;4.97;1.30;;;18.20;99.90;;;;;;4997649;28;20213;-67
2021/12/06 11:40:27;;;;;;;4.67;1.30;;;18.20;99.90;;;;;;4999533;28;20188;-66
2021/12/06 11:43:12;;;;;;;3.53;1.33;;;18.30;99.90;;;;;;5003730;28;20248;-66
2021/12/06 11:45:51;;;;;;;4.50;1.40;;;18.30;99.90;;;;;;5030092;28;20518;-67
2021/12/06 11:48:31;;;;;;;10.60;1.50;;;18.30;99.90;;;;;;5003321;28;20220;-67
2021/12/06 11:51:12;;;;;;;5.43;1.40;;;18.20;99.90;;;;;;5001013;28;20402;-67
2021/12/06 11:53:49;;;;;;;4.90;1.40;;;18.20;99.90;;;;;;5002422;28;20287;-66
2021/12/06 11:56:44;;;;;;;9.40;1.23;;;18.20;99.90;;;;;;5023384;28;20200;-66
2021/12/06 11:59:15;;;;;;;5.00;1.30;;;18.20;99.90;;;;;;4999894;28;20193;-66
2021/12/06 12:01:52;;;;;;;6.47;1.40;;;18.10;99.90;;;;;;5033678;28;20184;-67
2021/12/06 12:04:26;;;;;;;7.83;1.53;;;18.10;99.90;;;;;;5000765;28;20203;-66
2021/12/06 12:07:01;;;;;;;2.87;1.30;;;18.10;99.90;;;;;;5004686;28;20914;-66
2021/12/06 12:09:37;;;;;;;6.80;1.53;;;18.10;99.90;;;;;;5003071;28;20183;-66
2021/12/06 12:12:20;;;;;;;6.63;1.20;;;18.00;99.90;;;;;;5016488;28;20192;-66
2021/12/06 12:14:55;;;;;;;3.67;1.40;;;18.00;99.90;;;;;;5001856;28;20185;-65
2021/12/06 12:17:27;;;;;;;7.10;1.50;;;17.90;99.90;;;;;;5008259;28;20216;-66
2021/12/06 12:19:58;;;;;;;6.27;1.30;;;17.80;99.90;;;;;;5035401;28;20703;-66
2021/12/06 12:22:27;;;;;;;5.30;1.23;;;17.80;99.90;;;;;;5007446;28;20188;-66
2021/12/06 12:24:59;;;;;;;8.23;1.53;;;17.80;99.90;;;;;;5009522;28;20189;-66
2021/12/06 12:27:40;;;;;;;8.57;3.27;;;17.80;99.90;;;;;;5005834;28;20988;-66
2021/12/06 12:30:07;;;;;;;9.57;3.53;;;17.70;99.90;;;;;;5003727;28;20205;-66
2021/12/06 12:32:35;;;;;;;8.47;3.70;;;17.70;99.90;;;;;;5005315;28;20247;-66
2021/12/06 12:35:11;;;;;;;13.80;4.17;;;17.60;99.90;;;;;;5023049;28;20219;-66
2021/12/06 12:37:43;;;;;;;10.23;3.77;;;17.60;99.90;;;;;;5006021;28;20216;-66
2021/12/06 12:40:21;;;;;;;11.93;4.40;;;17.50;99.90;;;;;;5026696;28;20196;-66
2021/12/06 12:43:09;;;;;;;11.20;3.73;;;17.40;99.90;;;;;;5007135;28;20307;-67
2021/12/06 12:45:45;;;;;;;11.30;3.87;;;17.40;99.90;;;;;;5007462;28;20716;-66
2021/12/06 12:48:15;;;;;;;11.73;4.27;;;17.30;99.90;;;;;;5006255;28;20188;-66
2021/12/06 12:50:59;;;;;;;10.53;4.20;;;17.30;99.90;;;;;;5004899;28;20189;-66
2021/12/06 12:53:26;;;;;;;12.10;3.97;;;17.30;99.90;;;;;;5040254;28;20254;-66
2021/12/06 12:55:52;;;;;;;12.47;4.03;;;17.20;99.90;;;;;;5004634;28;20196;-67
2021/12/06 12:58:26;;;;;;;13.07;3.87;;;17.20;99.90;;;;;;5007612;28;20224;-66
2021/12/06 13:00:58;;;;;;;9.77;3.80;;;17.20;99.90;;;;;;5005068;28;20244;-67
2021/12/06 13:03:33;;;;;;;13.50;3.50;;;17.20;99.90;;;;;;4988453;28;20189;-67
2021/12/06 13:06:23;;;;;;;7.63;3.30;;;17.20;99.90;;;;;;5006951;28;20649;-67
2021/12/06 13:09:02;;;;;;;11.83;4.07;;;17.10;99.90;;;;;;5007566;28;20308;-67
2021/12/06 13:12:05;;;;;;;12.53;3.43;;;17.10;99.90;;;;;;5005846;28;20196;-67
2021/12/06 13:14:41;;;;;;;11.77;5.07;;;17.10;99.90;;;;;;5003188;28;20689;-67
2021/12/06 13:17:14;;;;;;;6.33;3.57;;;17.10;99.90;;;;;;5007006;28;20628;-67
2021/12/06 13:19:55;;;;;;;11.40;4.53;;;17.10;99.90;;;;;;5005274;28;20204;-67
2021/12/06 13:22:32;;;;;;;12.77;3.90;;;17.10;99.90;;;;;;5004481;28;20286;-66